Time;durP1;ratioP1;P1;durP2;ratioP2;P2;SDS_P1;SDS_P2;PMS_P1;PMS_P2;Temp;Humidity;BMP_temperature;BMP_pressure;BME280_temperature;BME280_humidity;BME280_pressure;Samples;Min_cycle;Max_cycle;Signal;HPM_P1;HPM_P2
2023/12/24 06:00:42;;;;;;;1.48;0.55;;;8.80;75.50;;;;;;4795631;23;20135;-76
2023/12/24 06:02:45;;;;;;;1.40;0.50;;;8.80;75.50;;;;;;4102326;29;20051;-78
2023/12/24 06:04:46;;;;;;;1.70;0.47;;;8.80;75.90;;;;;;4101719;29;20078;-80
2023/12/24 06:06:48;;;;;;;1.92;0.60;;;8.80;74.90;;;;;;4101743;29;20540;-80
2023/12/24 06:08:50;;;;;;;2.00;0.60;;;8.80;74.60;;;;;;4102065;29;20047;-77
2023/12/24 06:10:52;;;;;;;1.30;0.50;;;8.80;74.60;;;;;;4101184;29;20189;-79
2023/12/24 06:12:54;;;;;;;2.13;0.60;;;8.80;74.70;;;;;;4101594;29;20047;-79
2023/12/24 06:14:56;;;;;;;3.25;0.70;;;8.90;74.50;;;;;;4101925;29;20127;-79
2023/12/24 06:17:00;;;;;;;1.23;0.57;;;8.90;74.60;;;;;;4101502;29;20061;-79
2023/12/24 06:19:01;;;;;;;1.17;0.50;;;8.90;74.60;;;;;;4101524;29;20119;-79
2023/12/24 06:21:05;;;;;;;2.08;0.70;;;8.90;74.70;;;;;;4098827;29;20055;-79
2023/12/24 06:23:06;;;;;;;1.80;0.50;;;8.90;74.70;;;;;;4104076;28;20051;-79
2023/12/24 06:25:08;;;;;;;1.45;0.52;;;8.90;74.70;;;;;;4110550;28;20047;-79
2023/12/24 06:27:09;;;;;;;2.55;0.52;;;8.90;74.90;;;;;;4107166;28;20103;-79
2023/12/24 06:29:12;;;;;;;2.53;0.70;;;8.90;75.10;;;;;;4092124;29;20476;-78
2023/12/24 06:31:22;;;;;;;1.83;0.57;;;8.90;75.20;;;;;;4101124;29;20059;-74
2023/12/24 06:33:25;;;;;;;0.90;0.40;;;8.90;75.40;;;;;;4093225;29;20074;-81
2023/12/24 06:35:27;;;;;;;2.15;0.60;;;8.90;75.50;;;;;;4085404;29;20043;-76
2023/12/24 06:37:29;;;;;;;2.22;0.52;;;8.90;75.70;;;;;;4099812;28;20051;-77
2023/12/24 06:39:31;;;;;;;1.85;0.70;;;8.90;75.80;;;;;;4097796;28;20095;-79
2023/12/24 06:41:32;;;;;;;2.30;0.60;;;8.90;76.10;;;;;;4091876;29;20473;-79
2023/12/24 06:43:34;;;;;;;1.38;0.60;;;8.90;76.30;;;;;;4101174;29;20055;-79
2023/12/24 06:45:36;;;;;;;1.90;0.90;;;8.90;76.50;;;;;;4085303;29;20134;-78
2023/12/24 06:47:38;;;;;;;1.25;0.60;;;8.90;76.70;;;;;;4085349;29;20453;-79
2023/12/24 06:49:44;;;;;;;1.05;0.40;;;9.00;76.80;;;;;;4078326;29;20134;-77
2023/12/24 06:51:46;;;;;;;1.02;0.45;;;9.00;76.90;;;;;;4069933;29;20144;-76
2023/12/24 06:53:48;;;;;;;2.63;0.73;;;9.00;77.10;;;;;;4069623;29;20454;-79
2023/12/24 06:55:50;;;;;;;1.65;0.60;;;9.00;77.20;;;;;;4076111;29;20489;-78
2023/12/24 06:57:50;;;;;;;1.15;0.50;;;9.00;77.40;;;;;;4074175;29;20059;-80
2023/12/24 06:59:53;;;;;;;1.27;0.55;;;9.00;77.50;;;;;;4085411;29;20055;-75
2023/12/24 07:01:55;;;;;;;2.55;0.50;;;9.00;77.50;;;;;;4085030;29;20051;-78
2023/12/24 07:03:57;;;;;;;2.28;0.60;;;9.00;77.70;;;;;;4084983;29;20055;-77
2023/12/24 07:06:00;;;;;;;1.35;0.50;;;9.00;77.80;;;;;;4085229;29;20047;-78
2023/12/24 07:08:03;;;;;;;2.58;0.60;;;9.00;77.70;;;;;;4085509;29;20062;-78
2023/12/24 07:10:05;;;;;;;1.50;0.65;;;9.00;77.80;;;;;;4100993;28;20377;-79
2023/12/24 07:12:08;;;;;;;1.77;0.50;;;9.10;77.90;;;;;;4099497;29;20055;-79
2023/12/24 07:14:09;;;;;;;1.48;0.60;;;9.10;78.00;;;;;;4085080;29;20718;-79
2023/12/24 07:16:11;;;;;;;1.40;0.50;;;9.00;77.90;;;;;;4085235;29;20051;-78
2023/12/24 07:18:13;;;;;;;2.17;0.65;;;9.10;78.10;;;;;;4084951;29;20118;-80
2023/12/24 07:20:15;;;;;;;2.40;0.60;;;9.10;78.10;;;;;;4085023;29;20051;-79
2023/12/24 07:22:19;;;;;;;1.45;0.50;;;9.10;78.90;;;;;;4084980;29;20467;-79
2023/12/24 07:24:21;;;;;;;1.58;0.60;;;9.10;78.20;;;;;;4086475;29;20496;-79
2023/12/24 07:26:23;;;;;;;1.77;0.57;;;9.10;78.20;;;;;;4088703;29;20087;-79
2023/12/24 07:28:25;;;;;;;1.13;0.40;;;9.10;78.10;;;;;;4085033;29;20390;-78
2023/12/24 07:30:27;;;;;;;1.13;0.40;;;9.10;78.10;;;;;;4084142;29;20055;-78
2023/12/24 07:32:29;;;;;;;1.98;0.60;;;9.10;77.90;;;;;;4092812;29;20098;-79
2023/12/24 07:34:30;;;;;;;1.17;0.40;;;9.10;77.80;;;;;;4084807;29;20445;-78
2023/12/24 07:36:32;;;;;;;1.25;0.25;;;9.10;77.60;;;;;;4084628;29;20051;-78
2023/12/24 07:38:35;;;;;;;1.00;0.40;;;9.20;77.20;;;;;;4084513;29;20073;-78
2023/12/24 07:40:37;;;;;;;0.88;0.30;;;9.20;77.10;;;;;;4084327;29;20048;-78
2023/12/24 07:42:38;;;;;;;0.52;0.22;;;9.20;76.80;;;;;;4084576;29;20048;-78
2023/12/24 07:44:40;;;;;;;1.02;0.45;;;9.20;76.70;;;;;;4084580;29;20087;-78
2023/12/24 07:46:43;;;;;;;0.63;0.30;;;9.30;76.50;;;;;;4084352;29;20054;-78
2023/12/24 07:48:44;;;;;;;1.30;0.40;;;9.30;76.30;;;;;;4084423;29;20056;-78
2023/12/24 07:50:45;;;;;;;0.52;0.20;;;9.20;76.30;;;;;;4084608;29;20541;-78
2023/12/24 07:52:47;;;;;;;0.77;0.25;;;9.30;76.20;;;;;;4084352;29;20040;-77
2023/12/24 07:54:49;;;;;;;1.40;0.40;;;9.30;76.00;;;;;;4084708;29;20477;-80
2023/12/24 07:56:51;;;;;;;6.18;2.25;;;9.30;75.90;;;;;;4084288;29;20407;-79
2023/12/24 07:58:53;;;;;;;0.50;0.20;;;9.40;75.60;;;;;;4084240;29;20631;-78
2023/12/24 08:00:55;;;;;;;0.75;0.30;;;9.40;75.30;;;;;;4084676;29;20083;-78
2023/12/24 08:02:57;;;;;;;1.58;0.50;;;9.40;75.40;;;;;;4086368;29;20433;-79
2023/12/24 08:04:59;;;;;;;0.38;0.30;;;9.40;75.30;;;;;;4087771;29;20089;-79
2023/12/24 08:07:01;;;;;;;0.20;0.20;;;9.40;75.20;;;;;;4088375;29;20477;-77
2023/12/24 08:09:03;;;;;;;0.85;0.20;;;9.40;75.00;;;;;;4087958;29;20445;-78
2023/12/24 08:11:06;;;;;;;2.80;0.28;;;9.50;74.90;;;;;;4077945;29;20048;-74
2023/12/24 08:13:07;;;;;;;0.60;0.20;;;9.50;74.90;;;;;;4072356;29;20048;-77
2023/12/24 08:15:09;;;;;;;1.40;0.40;;;9.50;74.90;;;;;;4072165;29;20113;-78
2023/12/24 08:17:11;;;;;;;1.02;0.38;;;9.50;74.80;;;;;;4072592;29;20103;-80
2023/12/24 08:19:12;;;;;;;1.70;0.50;;;9.50;74.60;;;;;;4071974;29;20107;-78
2023/12/24 08:21:14;;;;;;;2.08;0.80;;;9.50;74.70;;;;;;4072551;29;20450;-79
2023/12/24 08:23:16;;;;;;;0.73;0.22;;;9.60;74.70;;;;;;4073348;29;20052;-79
2023/12/24 08:25:18;;;;;;;0.75;0.25;;;9.50;74.70;;;;;;4073816;29;20044;-76
2023/12/24 08:27:22;;;;;;;0.30;0.20;;;9.60;74.70;;;;;;4087095;29;20058;-79
2023/12/24 08:29:23;;;;;;;0.98;0.40;;;9.60;74.60;;;;;;4088879;29;20055;-78
2023/12/24 08:31:25;;;;;;;1.30;0.30;;;9.60;74.70;;;;;;4089055;29;20051;-78
2023/12/24 08:33:27;;;;;;;0.90;0.28;;;9.60;74.80;;;;;;4089790;29;20047;-77
2023/12/24 08:35:29;;;;;;;1.90;0.75;;;9.60;74.80;;;;;;4089333;29;20052;-78
2023/12/24 08:37:31;;;;;;;0.85;0.35;;;9.60;74.90;;;;;;4087940;29;20066;-79
2023/12/24 08:39:33;;;;;;;1.38;0.50;;;9.60;74.80;;;;;;4087486;29;20484;-79
2023/12/24 08:41:34;;;;;;;1.10;0.40;;;9.70;74.80;;;;;;4087268;29;20048;-79
2023/12/24 08:43:38;;;;;;;1.45;0.60;;;9.70;74.80;;;;;;4087224;29;20055;-80
2023/12/24 08:45:39;;;;;;;1.05;0.45;;;9.70;74.80;;;;;;4087019;29;20056;-80
2023/12/24 08:47:40;;;;;;;1.35;0.40;;;9.70;74.90;;;;;;4087258;29;20481;-80
2023/12/24 08:49:42;;;;;;;1.40;0.52;;;9.70;75.00;;;;;;4087203;29;20048;-79
2023/12/24 08:51:44;;;;;;;1.17;0.40;;;9.70;75.10;;;;;;4087006;29;20111;-78
2023/12/24 08:53:46;;;;;;;0.80;0.20;;;9.70;74.90;;;;;;4087043;29;20109;-79
2023/12/24 08:55:48;;;;;;;0.50;0.20;;;9.80;75.10;;;;;;4084206;29;20454;-79
2023/12/24 08:57:49;;;;;;;1.30;0.32;;;9.70;75.10;;;;;;4086737;29;20095;-78
2023/12/24 08:59:52;;;;;;;0.85;0.30;;;9.80;75.20;;;;;;4087025;29;20056;-78
2023/12/24 09:01:53;;;;;;;0.90;0.35;;;9.80;75.30;;;;;;4086611;29;20557;-78
2023/12/24 09:03:55;;;;;;;0.80;0.30;;;9.80;75.40;;;;;;4086748;29;20051;-78
2023/12/24 09:05:57;;;;;;;1.05;0.20;;;9.80;75.40;;;;;;4086979;29;20047;-78
2023/12/24 09:07:59;;;;;;;0.68;0.30;;;9.80;75.40;;;;;;4086778;29;20048;-78
2023/12/24 09:10:01;;;;;;;0.60;0.22;;;9.80;75.30;;;;;;4086469;29;20082;-79
2023/12/24 09:12:03;;;;;;;1.42;0.50;;;9.80;75.40;;;;;;4078419;29;20051;-78
2023/12/24 09:14:05;;;;;;;2.80;1.20;;;9.80;75.40;;;;;;4081709;29;20401;-77
2023/12/24 09:16:08;;;;;;;1.42;0.40;;;9.90;75.30;;;;;;4086595;29;20111;-79
2023/12/24 09:18:10;;;;;;;0.98;0.25;;;9.90;75.10;;;;;;4086757;29;20394;-80
2023/12/24 09:20:12;;;;;;;0.85;0.32;;;9.90;75.10;;;;;;4081682;29;20047;-80
2023/12/24 09:22:14;;;;;;;1.00;0.40;;;9.90;74.90;;;;;;4068604;29;20060;-79
2023/12/24 09:24:16;;;;;;;0.90;0.38;;;9.90;74.90;;;;;;4068789;29;20456;-79
2023/12/24 09:26:18;;;;;;;1.25;0.40;;;10.00;75.00;;;;;;4068976;29;20405;-78
2023/12/24 09:28:19;;;;;;;0.75;0.28;;;10.00;74.80;;;;;;4081495;29;20059;-79
2023/12/24 09:30:21;;;;;;;2.10;0.52;;;10.00;74.80;;;;;;4091373;29;20069;-79
2023/12/24 09:32:24;;;;;;;1.08;0.30;;;10.00;74.80;;;;;;4086944;29;20058;-80
2023/12/24 09:34:25;;;;;;;0.80;0.30;;;10.00;75.00;;;;;;4084574;29;20052;-81
2023/12/24 09:36:27;;;;;;;0.60;0.30;;;10.00;75.40;;;;;;4076076;29;20051;-80
2023/12/24 09:38:29;;;;;;;0.47;0.22;;;10.00;75.50;;;;;;4086896;29;20051;-79
2023/12/24 09:40:31;;;;;;;2.13;0.40;;;10.00;75.80;;;;;;4084606;29;20115;-80
2023/12/24 09:42:32;;;;;;;0.40;0.20;;;10.00;76.00;;;;;;4084457;29;20055;-79
2023/12/24 09:44:36;;;;;;;1.02;0.40;;;10.00;76.00;;;;;;4084263;29;20102;-79
2023/12/24 09:46:38;;;;;;;1.55;0.50;;;10.00;76.20;;;;;;4084656;29;20059;-78
2023/12/24 09:48:40;;;;;;;1.23;0.50;;;10.00;76.10;;;;;;4084408;29;20055;-80
2023/12/24 09:50:42;;;;;;;1.10;0.50;;;10.00;76.10;;;;;;4084443;29;20059;-81
2023/12/24 09:52:45;;;;;;;0.73;0.40;;;10.10;76.00;;;;;;4079464;29;20470;-77
2023/12/24 09:54:47;;;;;;;1.30;0.50;;;10.10;76.10;;;;;;4083760;29;20043;-77
2023/12/24 09:56:49;;;;;;;1.85;0.63;;;10.10;76.10;;;;;;4071446;29;20112;-79
2023/12/24 09:58:51;;;;;;;1.10;0.40;;;10.10;76.40;;;;;;4083036;29;20063;-78
2023/12/24 10:00:53;;;;;;;1.35;0.43;;;10.10;76.10;;;;;;4084858;29;20774;-77
2023/12/24 10:02:55;;;;;;;1.38;0.40;;;10.10;76.00;;;;;;4082293;29;20552;-80
2023/12/24 10:05:00;;;;;;;0.88;0.30;;;10.10;76.20;;;;;;4078077;29;20048;-81
2023/12/24 10:07:02;;;;;;;0.93;0.38;;;10.10;76.40;;;;;;4084232;29;20130;-77
2023/12/24 10:09:05;;;;;;;1.98;0.30;;;10.20;76.20;;;;;;4083015;29;20051;-80
2023/12/24 10:11:20;;;;;;;1.33;0.47;;;10.20;76.10;;;;;;4081895;29;20075;-80
2023/12/24 10:13:22;;;;;;;2.22;0.38;;;10.20;76.20;;;;;;4083736;29;20059;-82
2023/12/24 10:15:24;;;;;;;1.67;0.60;;;10.20;76.40;;;;;;4083026;29;20489;-78
2023/12/24 10:17:30;;;;;;;1.65;0.43;;;10.20;76.70;;;;;;4080965;29;20064;-78
2023/12/24 10:19:33;;;;;;;1.35;0.40;;;10.20;77.20;;;;;;4083688;29;20052;-79
2023/12/24 10:21:35;;;;;;;1.88;0.47;;;10.20;77.70;;;;;;4082642;29;20051;-79
2023/12/24 10:23:37;;;;;;;0.73;0.35;;;10.20;78.80;;;;;;4079594;29;20382;-78
2023/12/24 10:25:38;;;;;;;0.95;0.43;;;10.20;78.80;;;;;;4082393;29;20055;-81
2023/12/24 10:27:40;;;;;;;1.45;0.60;;;10.10;79.10;;;;;;4082931;29;20138;-79
2023/12/24 10:29:44;;;;;;;1.38;0.50;;;10.20;78.80;;;;;;4083087;29;20779;-78
2023/12/24 10:31:51;;;;;;;2.17;0.50;;;10.20;78.80;;;;;;4082619;29;20152;-77
2023/12/24 10:34:00;;;;;;;2.80;0.90;;;10.20;78.60;;;;;;4082833;29;20055;-77
2023/12/24 10:36:02;;;;;;;1.25;0.60;;;10.30;78.50;;;;;;4083454;29;20531;-80
2023/12/24 10:38:16;;;;;;;1.35;0.50;;;10.30;78.30;;;;;;4083405;29;20395;-79
2023/12/24 10:40:17;;;;;;;1.50;0.60;;;10.30;78.10;;;;;;4082844;29;20103;-81
2023/12/24 10:42:19;;;;;;;1.25;0.50;;;10.30;78.10;;;;;;4083216;29;20052;-79
2023/12/24 10:44:21;;;;;;;1.50;0.50;;;10.40;78.00;;;;;;4082339;29;20055;-78
2023/12/24 10:46:23;;;;;;;1.98;0.63;;;10.40;77.70;;;;;;4082410;29;20079;-80
2023/12/24 10:48:25;;;;;;;2.40;0.50;;;10.40;77.70;;;;;;4082787;29;20083;-80
2023/12/24 10:50:27;;;;;;;0.77;0.30;;;10.40;77.80;;;;;;4080074;29;20048;-79
2023/12/24 10:52:28;;;;;;;2.00;0.60;;;10.40;77.30;;;;;;4083188;29;20084;-80
2023/12/24 10:54:31;;;;;;;1.55;0.50;;;10.40;77.40;;;;;;4082870;29;20052;-77
2023/12/24 10:56:41;;;;;;;0.93;0.40;;;10.40;77.30;;;;;;4092317;29;20055;-78
2023/12/24 10:58:52;;;;;;;0.82;0.40;;;10.40;77.40;;;;;;4093103;29;20055;-79
2023/12/24 11:00:54;;;;;;;0.95;0.50;;;10.40;77.50;;;;;;4082479;29;20553;-79
2023/12/24 11:02:55;;;;;;;1.08;0.50;;;10.50;77.30;;;;;;4079330;29;20054;-79
2023/12/24 11:04:57;;;;;;;1.42;0.50;;;10.50;77.20;;;;;;4081845;29;20636;-77
2023/12/24 11:07:04;;;;;;;2.22;0.70;;;10.50;77.40;;;;;;4082820;29;20079;-79
2023/12/24 11:09:08;;;;;;;1.42;0.60;;;10.50;77.80;;;;;;4067101;29;20060;-78
2023/12/24 11:11:13;;;;;;;1.98;0.65;;;10.60;77.70;;;;;;4065025;29;20502;-79
2023/12/24 11:13:45;;;;;;;0.70;0.40;;;10.50;78.00;;;;;;4066998;29;20056;-77
2023/12/24 11:15:47;;;;;;;1.65;0.60;;;10.60;78.10;;;;;;4066988;29;20056;-81
2023/12/24 11:17:49;;;;;;;1.48;0.60;;;10.60;78.30;;;;;;4080507;29;20047;-78
2023/12/24 11:19:51;;;;;;;2.08;0.68;;;10.60;77.80;;;;;;4081976;29;20484;-79
2023/12/24 11:22:07;;;;;;;1.23;0.60;;;10.60;77.80;;;;;;4082263;29;20047;-78
2023/12/24 11:24:21;;;;;;;1.80;0.70;;;10.60;77.70;;;;;;4082559;29;20541;-79
2023/12/24 11:26:32;;;;;;;1.65;0.70;;;10.70;77.50;;;;;;4082496;29;20059;-79
2023/12/24 11:28:38;;;;;;;1.27;0.50;;;10.70;77.50;;;;;;4082335;29;20055;-80
2023/12/24 11:31:01;;;;;;;;;;;10.80;77.30;;;;;;4082639;29;20062;-79
2023/12/24 11:33:04;;;;;;;1.30;0.57;;;10.80;77.30;;;;;;4081192;29;19936;-80
2023/12/24 11:35:06;;;;;;;2.15;0.90;;;10.80;77.40;;;;;;4082462;29;20067;-78
2023/12/24 11:37:07;;;;;;;3.72;1.88;;;10.80;77.50;;;;;;4083313;29;20481;-83
2023/12/24 11:39:09;;;;;;;1.90;0.70;;;10.90;77.70;;;;;;4082912;29;20107;-81
2023/12/24 11:41:12;;;;;;;1.42;0.65;;;10.90;77.60;;;;;;4083525;29;20051;-79
2023/12/24 11:43:17;;;;;;;1.30;0.70;;;10.90;77.80;;;;;;4084764;29;20058;-87
2023/12/24 11:45:23;;;;;;;1.90;0.90;;;11.00;77.80;;;;;;4067695;29;20450;-80
2023/12/24 11:47:25;;;;;;;1.40;0.60;;;11.00;77.80;;;;;;4082905;29;20485;-80
2023/12/24 11:49:27;;;;;;;2.08;0.50;;;10.90;77.60;;;;;;4081558;29;20106;-79
2023/12/24 11:51:31;;;;;;;2.00;0.50;;;10.90;77.70;;;;;;4082025;29;20055;-80
2023/12/24 11:53:33;;;;;;;1.88;0.52;;;11.00;77.70;;;;;;4081815;29;20052;-77
2023/12/24 11:55:35;;;;;;;1.20;0.55;;;11.00;77.70;;;;;;4082296;29;20062;-82
2023/12/24 11:57:36;;;;;;;1.80;0.60;;;11.00;77.90;;;;;;4082210;29;20457;-77
2023/12/24 11:59:39;;;;;;;2.15;0.70;;;11.00;78.00;;;;;;4082143;29;20048;-76
2023/12/24 12:01:41;;;;;;;0.88;0.35;;;11.00;78.30;;;;;;4082343;29;20513;-77
2023/12/24 12:03:43;;;;;;;0.88;0.40;;;11.00;78.10;;;;;;4082089;29;20059;-79
2023/12/24 12:05:45;;;;;;;0.77;0.30;;;10.90;78.10;;;;;;4082171;29;20553;-78
2023/12/24 12:07:47;;;;;;;0.57;0.25;;;10.90;78.20;;;;;;4081853;29;20127;-79
2023/12/24 12:09:49;;;;;;;1.52;0.50;;;10.90;78.40;;;;;;4082270;29;20055;-83
2023/12/24 12:11:51;;;;;;;1.20;0.50;;;10.90;78.40;;;;;;4080223;29;20056;-78
2023/12/24 12:13:53;;;;;;;2.10;0.60;;;10.90;78.30;;;;;;4082406;29;20692;-78
2023/12/24 12:15:57;;;;;;;1.95;0.50;;;10.90;78.40;;;;;;4082809;29;20051;-79
2023/12/24 12:17:58;;;;;;;1.63;0.50;;;10.90;78.40;;;;;;4083224;29;20099;-85
2023/12/24 12:20:00;;;;;;;1.02;0.40;;;10.90;78.20;;;;;;4085103;29;20051;-84
2023/12/24 12:22:02;;;;;;;1.05;0.40;;;10.90;78.30;;;;;;4085509;29;20438;-83
2023/12/24 12:24:05;;;;;;;1.33;0.45;;;11.00;78.40;;;;;;4085009;29;20058;-82
2023/12/24 12:26:07;;;;;;;1.70;0.60;;;10.90;78.30;;;;;;4084773;29;20088;-83
2023/12/24 12:28:09;;;;;;;2.83;1.13;;;11.00;78.40;;;;;;4085149;29;20142;-82
2023/12/24 12:30:13;;;;;;;0.90;0.40;;;11.00;78.20;;;;;;4085496;29;20107;-85
2023/12/24 12:32:16;;;;;;;1.60;0.60;;;11.10;78.20;;;;;;4084946;29;20052;-84
2023/12/24 12:34:18;;;;;;;1.58;0.43;;;11.10;77.90;;;;;;4085925;29;20405;-85
2023/12/24 12:36:20;;;;;;;1.95;0.40;;;11.10;77.70;;;;;;4085046;29;20048;-85
2023/12/24 12:38:22;;;;;;;0.68;0.30;;;11.00;77.90;;;;;;4081954;29;20107;-81
2023/12/24 12:40:23;;;;;;;1.23;0.43;;;11.00;77.80;;;;;;4060467;29;20056;-80
2023/12/24 12:42:24;;;;;;;1.15;0.43;;;11.00;78.00;;;;;;4080540;29;20071;-80
2023/12/24 12:44:25;;;;;;;0.82;0.30;;;11.00;77.80;;;;;;4080393;29;20472;-81
2023/12/24 12:46:27;;;;;;;1.55;0.40;;;11.00;78.00;;;;;;4080906;29;20107;-80
2023/12/24 12:48:30;;;;;;;1.38;0.50;;;11.00;78.00;;;;;;4081846;29;20051;-80
2023/12/24 12:50:32;;;;;;;1.35;0.38;;;11.00;78.10;;;;;;4084075;29;20913;-80
2023/12/24 12:52:34;;;;;;;1.33;0.52;;;10.90;78.40;;;;;;4083876;29;20542;-79
2023/12/24 12:54:36;;;;;;;1.00;0.40;;;10.90;78.30;;;;;;4083713;29;20146;-79
2023/12/24 12:56:43;;;;;;;2.35;0.98;;;10.90;78.30;;;;;;4083686;29;20107;-81
2023/12/24 12:58:52;;;;;;;2.78;0.68;;;10.90;78.40;;;;;;4083925;29;20518;-81
2023/12/24 13:00:57;;;;;;;1.60;0.60;;;10.90;78.40;;;;;;4083955;29;20060;-77
2023/12/24 13:03:07;;;;;;;1.63;0.60;;;10.90;78.00;;;;;;4083471;29;20083;-78
2023/12/24 13:05:27;;;;;;;2.15;0.63;;;10.90;78.00;;;;;;4083864;29;20101;-78
2023/12/24 13:07:33;;;;;;;1.92;0.60;;;10.90;77.80;;;;;;4083673;29;20051;-79
2023/12/24 13:09:42;;;;;;;1.05;0.40;;;10.90;78.20;;;;;;4083713;29;20159;-79
2023/12/24 13:11:44;;;;;;;1.30;0.50;;;10.90;78.30;;;;;;4082160;29;20060;-78
2023/12/24 13:13:46;;;;;;;0.73;0.35;;;10.90;78.20;;;;;;4084235;29;20048;-80
2023/12/24 13:15:49;;;;;;;1.85;0.85;;;10.90;78.20;;;;;;4083842;29;20060;-79
2023/12/24 13:17:51;;;;;;;1.15;0.50;;;10.80;78.40;;;;;;4083488;29;20537;-80
2023/12/24 13:19:54;;;;;;;1.20;0.45;;;10.80;78.50;;;;;;4083726;29;20056;-80
2023/12/24 13:21:57;;;;;;;2.17;0.90;;;10.80;78.60;;;;;;4083883;29;20044;-80
2023/12/24 13:23:59;;;;;;;1.75;0.60;;;10.80;78.90;;;;;;4084025;29;20059;-79
2023/12/24 13:26:03;;;;;;;3.35;1.30;;;10.70;78.90;;;;;;4083951;29;20103;-79
2023/12/24 13:28:04;;;;;;;2.30;0.98;;;10.80;78.90;;;;;;4083717;29;20058;-78
2023/12/24 13:30:08;;;;;;;1.65;0.70;;;10.70;79.00;;;;;;4083752;29;20101;-77
2023/12/24 13:32:10;;;;;;;1.13;0.43;;;10.70;79.10;;;;;;4083598;29;20072;-78
2023/12/24 13:34:14;;;;;;;1.48;0.50;;;10.70;79.20;;;;;;4083720;29;20465;-81
2023/12/24 13:36:16;;;;;;;0.90;0.43;;;10.70;79.30;;;;;;4083784;29;20056;-79
2023/12/24 13:38:21;;;;;;;1.92;0.55;;;10.70;79.50;;;;;;4094860;29;20059;-77
2023/12/24 13:40:23;;;;;;;1.38;0.45;;;10.70;79.60;;;;;;4099567;29;20055;-78
2023/12/24 13:42:25;;;;;;;1.75;0.55;;;10.60;79.70;;;;;;4099285;28;20099;-78
2023/12/24 13:44:27;;;;;;;1.05;0.40;;;10.60;79.70;;;;;;4099606;29;20519;-78
2023/12/24 13:46:29;;;;;;;1.60;0.43;;;10.70;79.90;;;;;;4086285;29;20515;-78
2023/12/24 13:48:30;;;;;;;1.17;0.50;;;10.60;80.00;;;;;;4082981;29;20044;-78
2023/12/24 13:50:32;;;;;;;0.93;0.60;;;10.60;79.90;;;;;;4084666;29;20047;-80
2023/12/24 13:52:33;;;;;;;1.33;0.60;;;10.60;80.10;;;;;;4084105;29;20143;-80
2023/12/24 13:54:37;;;;;;;1.83;0.50;;;10.60;80.20;;;;;;4083982;29;20467;-79
2023/12/24 13:56:38;;;;;;;1.58;0.47;;;10.60;80.10;;;;;;4083478;29;20059;-78
2023/12/24 13:58:41;;;;;;;1.45;0.40;;;10.70;80.40;;;;;;4083386;29;20103;-78
2023/12/24 14:00:43;;;;;;;1.40;0.57;;;10.60;80.30;;;;;;4082254;29;20474;-79
2023/12/24 14:02:46;;;;;;;1.20;0.40;;;10.60;80.40;;;;;;4083324;29;20498;-79
2023/12/24 14:04:47;;;;;;;1.75;0.65;;;10.60;80.60;;;;;;4082905;29;20480;-80
2023/12/24 14:06:49;;;;;;;0.80;0.30;;;10.60;80.70;;;;;;4083401;29;20091;-77
2023/12/24 14:08:51;;;;;;;1.55;0.50;;;10.60;80.60;;;;;;4083193;29;20048;-80
2023/12/24 14:10:54;;;;;;;0.75;0.40;;;10.60;80.80;;;;;;4081543;29;20064;-78
2023/12/24 14:12:56;;;;;;;1.73;0.70;;;10.60;81.20;;;;;;4083645;29;20074;-78
2023/12/24 14:14:58;;;;;;;1.90;0.70;;;10.50;81.20;;;;;;4083027;29;20063;-78
2023/12/24 14:17:00;;;;;;;1.10;0.50;;;10.60;81.40;;;;;;4083075;29;20618;-79
2023/12/24 14:19:02;;;;;;;3.25;1.48;;;10.60;81.30;;;;;;4082979;29;20060;-78
2023/12/24 14:21:05;;;;;;;1.50;0.60;;;10.60;81.40;;;;;;4082916;29;20051;-77
2023/12/24 14:23:08;;;;;;;1.50;0.65;;;10.60;81.40;;;;;;4082936;29;20134;-80
2023/12/24 14:25:09;;;;;;;1.75;0.60;;;10.60;81.40;;;;;;4083257;29;20098;-79
2023/12/24 14:27:13;;;;;;;1.80;0.80;;;10.60;81.50;;;;;;4082970;29;20095;-79
2023/12/24 14:29:15;;;;;;;2.30;0.80;;;10.60;81.40;;;;;;4082290;29;20095;-79
2023/12/24 14:31:16;;;;;;;1.38;0.40;;;10.60;81.50;;;;;;4082788;29;20118;-79
2023/12/24 14:33:19;;;;;;;2.70;0.68;;;10.70;81.40;;;;;;4082814;29;20146;-79
2023/12/24 14:35:21;;;;;;;1.88;0.70;;;10.70;81.50;;;;;;4083007;29;20052;-79
2023/12/24 14:37:22;;;;;;;3.00;0.80;;;10.70;81.60;;;;;;4082975;29;20067;-78
2023/12/24 14:39:27;;;;;;;2.22;0.70;;;10.60;81.60;;;;;;4082242;29;20066;-80
2023/12/24 14:41:29;;;;;;;1.93;0.70;;;10.60;81.60;;;;;;4082170;29;20046;-80
2023/12/24 14:43:33;;;;;;;2.83;0.82;;;10.60;81.60;;;;;;4072913;29;20056;-78
2023/12/24 14:45:35;;;;;;;1.77;0.60;;;10.70;81.80;;;;;;4067371;29;20064;-78
2023/12/24 14:47:36;;;;;;;1.58;0.80;;;10.70;81.80;;;;;;4081206;29;20051;-79
2023/12/24 14:49:38;;;;;;;1.88;0.73;;;10.70;81.90;;;;;;4082772;29;20662;-80
2023/12/24 14:51:40;;;;;;;1.63;0.70;;;10.70;81.90;;;;;;4082475;29;20088;-79
2023/12/24 14:53:41;;;;;;;1.65;0.60;;;10.70;81.90;;;;;;4082516;29;20059;-78
2023/12/24 14:55:43;;;;;;;1.67;0.70;;;10.70;82.10;;;;;;4082703;29;20126;-77
2023/12/24 14:57:44;;;;;;;1.92;0.60;;;10.70;82.10;;;;;;4081855;29;20060;-78
2023/12/24 14:59:47;;;;;;;1.55;0.60;;;10.70;82.00;;;;;;4082398;29;20059;-78
2023/12/24 15:01:49;;;;;;;1.63;0.70;;;10.70;82.60;;;;;;4081961;29;20170;-79
2023/12/24 15:03:50;;;;;;;1.70;0.70;;;10.70;81.90;;;;;;4082159;29;20059;-77
2023/12/24 15:05:52;;;;;;;2.83;1.20;;;10.70;81.90;;;;;;4082539;29;20063;-80
2023/12/24 15:07:54;;;;;;;1.58;0.70;;;10.70;81.80;;;;;;4081950;29;20631;-80
2023/12/24 15:09:58;;;;;;;2.25;0.82;;;10.70;81.80;;;;;;4081976;29;20056;-80
2023/12/24 15:12:00;;;;;;;1.40;0.60;;;10.80;81.80;;;;;;4080130;29;20111;-80
2023/12/24 15:14:02;;;;;;;1.52;0.65;;;10.80;81.70;;;;;;4082179;29;20055;-78
2023/12/24 15:16:06;;;;;;;7.43;3.80;;;10.80;81.70;;;;;;4082349;29;20099;-79
2023/12/24 15:18:08;;;;;;;1.70;0.70;;;10.80;81.70;;;;;;4082081;29;20114;-79
2023/12/24 15:20:10;;;;;;;1.98;0.60;;;10.80;81.50;;;;;;4081876;29;20051;-79
2023/12/24 15:22:12;;;;;;;1.42;0.60;;;10.80;81.40;;;;;;4081978;29;20051;-79
2023/12/24 15:24:14;;;;;;;2.55;0.60;;;10.80;81.40;;;;;;4082006;29;20060;-78
2023/12/24 15:26:16;;;;;;;1.20;0.50;;;10.80;81.30;;;;;;4082043;29;20553;-81
2023/12/24 15:28:19;;;;;;;1.40;0.50;;;10.80;81.30;;;;;;4081907;29;20044;-80
2023/12/24 15:30:21;;;;;;;1.77;0.63;;;10.80;81.30;;;;;;4081581;29;20115;-77
2023/12/24 15:32:25;;;;;;;1.85;0.70;;;10.80;81.40;;;;;;4081146;29;20059;-79
2023/12/24 15:34:27;;;;;;;1.55;0.68;;;10.90;81.40;;;;;;4081665;29;20047;-78
2023/12/24 15:36:29;;;;;;;2.15;0.70;;;10.90;81.30;;;;;;4081620;29;20071;-77
2023/12/24 15:38:33;;;;;;;1.35;0.50;;;10.90;81.40;;;;;;4081844;29;20059;-78
2023/12/24 15:40:35;;;;;;;1.40;0.60;;;10.80;81.50;;;;;;4081611;29;20107;-80
2023/12/24 15:42:37;;;;;;;1.33;0.50;;;10.90;81.30;;;;;;4082078;29;20055;-77
2023/12/24 15:44:39;;;;;;;1.33;0.55;;;10.90;81.20;;;;;;4081626;29;20051;-77
2023/12/24 15:46:40;;;;;;;1.30;0.50;;;10.90;81.10;;;;;;4082156;29;20056;-79
2023/12/24 15:48:44;;;;;;;1.95;0.70;;;10.90;81.10;;;;;;4081384;29;20409;-77
2023/12/24 15:50:45;;;;;;;5.38;2.40;;;10.80;80.90;;;;;;4083639;29;20062;-79
2023/12/24 15:52:47;;;;;;;7.95;4.25;;;10.90;80.90;;;;;;4087984;29;20055;-79
2023/12/24 15:54:49;;;;;;;1.50;0.50;;;10.90;80.90;;;;;;4082619;29;20059;-82
2023/12/24 15:56:52;;;;;;;2.35;0.77;;;10.90;80.90;;;;;;4082635;29;20393;-80
2023/12/24 15:58:54;;;;;;;2.60;0.90;;;10.90;80.90;;;;;;4082869;29;20057;-79
2023/12/24 16:00:56;;;;;;;1.75;0.68;;;10.80;80.70;;;;;;4082636;29;20060;-80
2023/12/24 16:02:58;;;;;;;2.22;0.65;;;10.90;80.70;;;;;;4082519;29;20055;-81
2023/12/24 16:05:00;;;;;;;1.95;0.65;;;10.90;80.90;;;;;;4082881;29;20457;-81
2023/12/24 16:07:02;;;;;;;1.65;0.80;;;10.90;80.90;;;;;;4081962;29;20055;-80
2023/12/24 16:09:04;;;;;;;2.50;0.77;;;10.90;80.70;;;;;;4081545;29;20051;-79
2023/12/24 16:11:06;;;;;;;1.92;0.77;;;10.90;80.70;;;;;;4080276;29;20717;-81
2023/12/24 16:13:07;;;;;;;1.50;0.60;;;10.90;80.70;;;;;;4081889;29;20067;-77
2023/12/24 16:15:09;;;;;;;2.08;0.63;;;10.90;80.70;;;;;;4082027;29;20060;-81
2023/12/24 16:17:12;;;;;;;1.63;0.60;;;10.90;80.50;;;;;;4081751;29;20131;-80
2023/12/24 16:19:14;;;;;;;2.47;0.75;;;10.90;80.50;;;;;;4065095;29;20075;-79
2023/12/24 16:21:17;;;;;;;1.77;0.80;;;11.00;80.50;;;;;;4066086;29;20048;-76
2023/12/24 16:23:19;;;;;;;1.73;0.65;;;10.90;80.50;;;;;;4092036;28;20066;-80
2023/12/24 16:25:21;;;;;;;1.45;0.70;;;10.90;80.50;;;;;;4099769;28;20699;-80
2023/12/24 16:27:23;;;;;;;2.30;0.80;;;10.90;80.50;;;;;;4093728;29;20105;-78
2023/12/24 16:29:25;;;;;;;2.03;0.68;;;10.90;80.60;;;;;;4099596;28;20055;-79
2023/12/24 16:31:27;;;;;;;2.72;0.80;;;10.90;80.60;;;;;;4099998;29;20473;-79
2023/12/24 16:33:29;;;;;;;1.73;0.60;;;10.90;80.70;;;;;;4099461;28;20055;-77
2023/12/24 16:35:33;;;;;;;0.98;0.57;;;10.90;80.70;;;;;;4100749;28;20110;-76
2023/12/24 16:37:35;;;;;;;2.15;0.80;;;10.90;80.70;;;;;;4099270;29;20051;-77
2023/12/24 16:39:37;;;;;;;1.42;0.60;;;10.90;80.70;;;;;;4098504;29;20106;-77
2023/12/24 16:41:44;;;;;;;2.35;0.68;;;10.90;80.60;;;;;;4096716;28;20055;-78